createdAt,value
2022-11-13T06:08:08.869Z,96907.41
2022-11-13T06:10:59.009Z,96910.84
2022-11-13T06:13:44.613Z,96909.81
2022-11-13T06:16:33.898Z,96916.16
2022-11-13T06:19:19.398Z,96911.09
2022-11-13T06:22:04.816Z,96917.66
2022-11-13T06:24:49.840Z,96923.91
2022-11-13T06:27:35.025Z,96917.34
2022-11-13T06:30:20.391Z,96924.75
2022-11-13T06:33:05.501Z,96924.34
2022-11-13T06:35:51.173Z,96926.50
2022-11-13T06:38:37.687Z,96916.59
2022-11-13T06:41:25.910Z,96905.91
2022-11-13T06:44:11.653Z,96907.50
2022-11-13T06:46:56.826Z,96911.78
2022-11-13T06:49:42.172Z,96913.41
2022-11-13T06:52:27.326Z,96900.91
2022-11-13T06:55:12.763Z,96890.25
2022-11-13T06:57:57.682Z,96895.59
2022-11-13T07:00:44.647Z,96871.69
2022-11-13T07:03:30.003Z,96869.84
2022-11-13T07:06:16.186Z,96875.31
2022-11-13T07:09:01.662Z,96871.69
2022-11-13T07:11:46.771Z,96858.34
2022-11-13T07:14:31.920Z,96860.91
2022-11-13T07:17:17.078Z,96861.84
2022-11-13T07:20:02.321Z,96858.44
2022-11-13T07:22:48.001Z,96850.34
2022-11-13T07:25:33.482Z,96853.97
2022-11-13T07:28:18.496Z,96844.25
2022-11-13T07:31:03.975Z,96853.22
2022-11-13T07:33:51.138Z,96838.28
2022-11-13T07:36:36.384Z,96836.59
2022-11-13T07:39:21.530Z,96841.91
2022-11-13T07:42:06.521Z,96825.34
2022-11-13T07:44:55.499Z,96834.34
2022-11-13T07:47:41.054Z,96827.28
2022-11-13T07:50:29.759Z,96831.44
2022-11-13T07:53:15.024Z,96839.34
2022-11-13T07:56:00.657Z,96834.00
2022-11-13T07:58:45.649Z,96836.59
2022-11-13T08:01:30.868Z,96837.53
2022-11-13T08:04:15.901Z,96850.94
2022-11-13T08:07:00.861Z,96852.78
2022-11-13T08:09:46.171Z,96859.94
2022-11-13T08:12:32.478Z,96850.09
2022-11-13T08:15:17.677Z,96843.94
2022-11-13T08:18:04.296Z,96854.69
2022-11-13T08:20:49.824Z,96854.69
2022-11-13T08:23:34.721Z,96854.69
2022-11-13T08:26:19.950Z,96862.78
2022-11-13T08:29:05.115Z,96855.75
2022-11-13T08:31:50.320Z,96852.25
2022-11-13T08:34:37.212Z,96855.66
2022-11-13T08:37:22.593Z,96849.59
2022-11-13T08:40:08.635Z,96846.13
2022-11-13T08:42:58.832Z,96839.00
2022-11-13T08:45:47.402Z,96831.97
2022-11-13T08:48:33.411Z,96839.00
2022-11-13T08:51:18.394Z,96830.03
2022-11-13T08:54:03.545Z,96827.38
2022-11-13T08:56:54.726Z,96823.97
2022-11-13T08:59:41.522Z,96805.72
2022-11-13T09:02:27.122Z,96803.03
2022-11-13T09:05:12.381Z,96797.06
2022-11-13T09:07:58.257Z,96799.31
2022-11-13T09:10:43.590Z,96795.31
2022-11-13T09:13:28.854Z,96794.16
2022-11-13T09:16:14.216Z,96790.22
2022-11-13T09:18:59.538Z,96786.38
2022-11-13T09:21:45.259Z,96791.63
2022-11-13T09:24:31.602Z,96785.50
2022-11-13T09:27:17.601Z,96782.00
2022-11-13T09:30:02.942Z,96774.75
2022-11-13T09:32:48.031Z,96780.81
2022-11-13T09:35:36.244Z,96764.66
2022-11-13T09:38:21.240Z,96770.81
2022-11-13T09:41:25.680Z,96777.00
2022-11-13T09:44:16.411Z,96768.91
2022-11-13T09:47:09.285Z,96767.09
2022-11-13T09:50:05.467Z,96761.75
2022-11-13T09:52:51.976Z,96753.69
2022-11-13T09:55:42.058Z,96755.50
2022-11-13T09:58:57.058Z,96753.69
2022-11-13T10:01:58.546Z,96754.56
2022-11-13T10:05:05.027Z,96761.56
2022-11-13T10:08:18.021Z,96750.16
2022-11-13T10:11:25.818Z,96750.16
2022-11-13T10:14:18.189Z,96742.06
2022-11-13T10:17:19.842Z,96744.84
2022-11-13T10:20:10.995Z,96738.75
2022-11-13T10:23:09.005Z,96731.19
2022-11-13T10:25:58.386Z,96728.06
2022-11-13T10:28:50.550Z,96708.22
2022-11-13T10:31:48.633Z,96721.88
2022-11-13T10:34:33.902Z,96715.09
2022-11-13T10:37:41.047Z,96699.44
2022-11-13T10:40:31.535Z,96696.06
2022-11-13T10:43:23.832Z,96694.69
2022-11-13T10:46:19.241Z,96697.78
2022-11-13T10:49:13.770Z,96686.06
2022-11-13T10:52:02.138Z,96681.81
2022-11-13T10:54:47.804Z,96670.06
2022-11-13T10:57:34.624Z,96657.28
2022-11-13T11:00:22.526Z,96651.72
2022-11-13T11:03:18.399Z,96638.19
2022-11-13T11:08:01.477Z,96648.50
2022-11-13T11:11:15.489Z,96647.47
2022-11-13T11:14:30.383Z,96647.22
2022-11-13T11:17:16.879Z,96640.94
2022-11-13T11:20:07.262Z,96644.44
2022-11-13T11:23:00.536Z,96634.41
2022-11-13T11:26:00.330Z,96625.22
2022-11-13T11:28:49.509Z,96631.31
2022-11-13T11:31:39.454Z,96633.03
2022-11-13T11:34:51.697Z,96620.47
2022-11-13T11:38:17.801Z,96612.22
2022-11-13T11:41:16.477Z,96607.63
2022-11-13T11:44:14.538Z,96613.69
2022-11-13T11:47:00.064Z,96607.41
2022-11-13T11:49:45.890Z,96599.41
2022-11-13T11:52:35.146Z,96607.31
2022-11-13T11:55:26.644Z,96597.38
2022-11-13T11:58:30.922Z,96593.72
2022-11-13T12:01:41.843Z,96582.09
2022-11-13T12:04:55.572Z,96582.84
2022-11-13T12:07:40.480Z,96572.91
2022-11-13T12:10:38.205Z,96563.91
2022-11-13T12:13:31.513Z,96568.31
2022-11-13T12:16:43.800Z,96562.00
2022-11-13T12:20:02.595Z,96553.88
2022-11-13T12:23:02.341Z,96553.88
2022-11-13T12:26:18.762Z,96556.31
2022-11-13T12:29:15.341Z,96556.22
2022-11-13T12:32:26.254Z,96557.06
2022-11-13T12:35:18.692Z,96558.75
2022-11-13T12:38:17.188Z,96555.13
2022-11-13T12:41:16.493Z,96548.44
2022-11-13T12:44:16.916Z,96541.00
2022-11-13T12:47:03.338Z,96530.16
2022-11-13T12:49:59.089Z,96514.69
2022-11-13T12:52:44.006Z,96517.59
2022-11-13T12:55:32.437Z,96500.94
2022-11-13T12:58:24.058Z,96494.16
2022-11-13T13:01:10.421Z,96496.06
2022-11-13T13:04:17.689Z,96485.50
2022-11-13T13:07:31.135Z,96491.78
2022-11-13T13:10:43.096Z,96480.38
2022-11-13T13:13:43.141Z,96483.06
2022-11-13T13:16:29.366Z,96481.38
2022-11-13T13:19:31.440Z,96474.44
2022-11-13T13:22:27.706Z,96475.31
2022-11-13T13:25:30.005Z,96481.59
2022-11-13T13:28:24.826Z,96479.75
2022-11-13T13:31:12.695Z,96488.75
2022-11-13T13:34:15.223Z,96482.56
2022-11-13T13:37:19.053Z,96473.69
2022-11-13T13:40:29.135Z,96474.56
2022-11-13T13:43:23.630Z,96469.50
2022-11-13T13:46:22.868Z,96470.75
2022-11-13T13:49:14.524Z,96469.31
2022-11-13T13:52:00.907Z,96465.38
2022-11-13T13:54:47.762Z,96464.66
2022-11-13T13:57:34.344Z,96464.00
2022-11-13T14:00:20.614Z,96466.16
2022-11-13T14:03:16.836Z,96447.94
2022-11-13T14:06:20.187Z,96448.38
2022-11-13T14:09:10.552Z,96453.22
2022-11-13T14:12:09.625Z,96440.13
2022-11-13T14:14:55.279Z,96428.81
2022-11-13T14:17:40.773Z,96419.25
2022-11-13T14:20:26.070Z,96423.00
2022-11-13T14:23:15.574Z,96416.91
2022-11-13T14:26:01.755Z,96416.16
2022-11-13T14:28:56.445Z,96407.41
2022-11-13T14:31:41.593Z,96401.34
2022-11-13T14:34:26.852Z,96396.28
2022-11-13T14:37:23.734Z,96399.16
2022-11-13T14:40:35.962Z,96395.13
2022-11-13T14:43:26.065Z,96387.38
2022-11-13T14:46:32.021Z,96393.75
2022-11-13T14:49:34.081Z,96393.00
2022-11-13T14:52:27.766Z,96397.50
2022-11-13T14:55:28.072Z,96394.84
2022-11-13T14:58:14.628Z,96404.53
2022-11-13T15:01:13.221Z,96398.34
2022-11-13T15:03:58.477Z,96399.31
2022-11-13T15:06:43.879Z,96401.97
2022-11-13T15:09:30.268Z,96403.66
2022-11-13T15:12:15.239Z,96398.47
2022-11-13T15:15:00.345Z,96396.66
2022-11-13T15:17:48.156Z,96402.09
2022-11-13T15:20:35.264Z,96404.66
2022-11-13T15:23:23.060Z,96407.59
2022-11-13T15:26:11.719Z,96399.16
2022-11-13T15:28:56.787Z,96393.50
2022-11-13T15:31:42.549Z,96397.38
2022-11-13T15:34:27.973Z,96403.00
2022-11-13T15:37:15.962Z,96397.34
2022-11-13T15:40:01.092Z,96405.97
2022-11-13T15:42:46.288Z,96401.22
2022-11-13T15:45:32.120Z,96387.47
2022-11-13T15:48:17.664Z,96382.72
2022-11-13T15:51:03.661Z,96385.28
2022-11-13T15:53:49.780Z,96380.69
2022-11-13T15:56:35.291Z,96383.03
2022-11-13T15:59:20.755Z,96390.06
2022-11-13T16:02:06.109Z,96388.25
2022-11-13T16:04:56.517Z,96392.41
2022-11-13T16:07:43.065Z,96390.56
2022-11-13T16:10:28.846Z,96396.75
2022-11-13T16:13:14.380Z,96394.94
2022-11-13T16:16:00.541Z,96385.13
2022-11-13T16:18:46.534Z,96392.16
2022-11-13T16:21:32.408Z,96382.31
2022-11-13T16:24:22.549Z,96385.00
2022-11-13T16:27:13.931Z,96377.00
2022-11-13T16:30:03.988Z,96372.38
2022-11-13T16:32:51.952Z,96377.72
2022-11-13T16:35:36.845Z,96373.13
2022-11-13T16:38:22.316Z,96380.06
2022-11-13T16:41:10.005Z,96372.91
2022-11-13T16:43:55.200Z,96381.88
2022-11-13T16:46:44.634Z,96386.44
2022-11-13T16:49:31.365Z,96380.28
2022-11-13T16:52:16.739Z,96382.94
2022-11-13T16:55:06.314Z,96386.59
2022-11-13T16:57:52.429Z,96371.53
2022-11-13T17:00:37.717Z,96381.38
2022-11-13T17:03:22.888Z,96383.19
2022-11-13T17:06:26.529Z,96382.00
2022-11-13T17:09:11.661Z,96370.59
2022-11-13T17:11:56.952Z,96373.25
2022-11-13T17:14:42.217Z,96369.84
2022-11-13T17:17:27.781Z,96368.16
2022-11-13T17:20:14.084Z,96364.53
2022-11-13T17:22:59.658Z,96371.44
2022-11-13T17:25:44.543Z,96365.25
2022-11-13T17:28:30.876Z,96373.13
2022-11-13T17:31:16.036Z,96380.28
2022-11-13T17:34:01.974Z,96382.22
2022-11-13T17:36:47.293Z,96377.88
2022-11-13T17:39:32.665Z,96371.66
2022-11-13T17:42:17.643Z,96371.78
2022-11-13T17:45:02.946Z,96361.97
2022-11-13T17:47:49.904Z,96361.84
2022-11-13T17:50:35.307Z,96362.81
2022-11-13T17:53:20.395Z,96373.59
2022-11-13T17:56:08.093Z,96375.41
2022-11-13T17:58:53.358Z,96370.19
2022-11-13T18:01:39.332Z,96380.03
2022-11-13T18:04:26.450Z,96378.19
2022-11-13T18:07:11.706Z,96374.78
2022-11-13T18:09:56.798Z,96373.94
2022-11-13T18:12:41.970Z,96370.19
2022-11-13T18:15:27.618Z,96364.97
2022-11-13T18:18:12.484Z,96363.41
2022-11-13T18:20:58.199Z,96361.56
2022-11-13T18:23:44.070Z,96368.63
2022-11-13T18:26:30.436Z,96376.63
2022-11-13T18:29:15.865Z,96367.63
2022-11-13T18:32:01.277Z,96369.47
2022-11-13T18:34:47.033Z,96364.97
2022-11-13T18:37:32.165Z,96361.56
2022-11-13T18:40:17.396Z,96356.38
2022-11-13T18:43:03.196Z,96352.84
2022-11-13T18:45:59.151Z,96358.38
2022-11-13T18:48:45.992Z,96358.38
2022-11-13T18:51:35.458Z,96367.34
2022-11-13T18:54:20.773Z,96363.72
2022-11-13T18:57:06.451Z,96354.16
2022-11-13T18:59:52.423Z,96375.34
2022-11-13T19:02:37.786Z,96369.28
2022-11-13T19:05:22.841Z,96371.94
2022-11-13T19:08:08.278Z,96360.44
2022-11-13T19:10:53.386Z,96362.16
2022-11-13T19:13:40.336Z,96362.88
2022-11-13T19:16:28.250Z,96365.66
2022-11-13T19:19:19.388Z,96360.31
2022-11-13T19:22:04.515Z,96363.94
2022-11-13T19:24:49.974Z,96374.72
2022-11-13T19:27:35.616Z,96366.84
2022-11-13T19:30:21.092Z,96372.19
2022-11-13T19:33:06.422Z,96371.31
2022-11-13T19:35:53.588Z,96365.97
2022-11-13T19:38:39.406Z,96353.63
2022-11-13T19:41:25.696Z,96368.66
2022-11-13T19:44:10.958Z,96369.63
2022-11-13T19:46:57.231Z,96378.47
2022-11-13T19:49:42.364Z,96372.31
2022-11-13T19:52:27.452Z,96366.13
2022-11-13T19:55:12.564Z,96359.91
2022-11-13T19:57:57.773Z,96369.63
2022-11-13T20:00:43.207Z,96359.06
2022-11-13T20:03:28.786Z,96362.59
2022-11-13T20:06:14.604Z,96356.31
2022-11-13T20:09:01.698Z,96355.22
2022-11-13T20:11:46.765Z,96357.03
2022-11-13T20:14:35.681Z,96357.03
2022-11-13T20:17:23.735Z,96351.59
2022-11-13T20:20:09.406Z,96350.13
2022-11-13T20:22:54.502Z,96353.63
2022-11-13T20:25:40.496Z,96369.38
2022-11-13T20:28:27.733Z,96365.16
2022-11-13T20:31:22.249Z,96354.47
2022-11-13T20:34:07.391Z,96333.38
2022-11-13T20:36:52.673Z,96337.84
2022-11-13T20:39:41.773Z,96343.19
2022-11-13T20:42:27.726Z,96333.50
2022-11-13T20:45:13.016Z,96333.50
2022-11-13T20:47:58.373Z,96333.63
2022-11-13T20:50:44.660Z,96341.59
2022-11-13T20:53:30.862Z,96336.28
2022-11-13T20:56:17.172Z,96339.78
2022-11-13T20:59:04.315Z,96343.44
2022-11-13T21:01:50.060Z,96346.94
2022-11-13T21:04:35.540Z,96350.56
2022-11-13T21:07:20.611Z,96352.38
2022-11-13T21:10:06.160Z,96351.44
2022-11-13T21:12:51.822Z,96341.72
2022-11-13T21:15:37.362Z,96349.84
2022-11-13T21:18:22.588Z,96351.31
2022-11-13T21:21:18.702Z,96344.28
2022-11-13T21:24:04.320Z,96340.78
2022-11-13T21:26:50.005Z,96357.50
2022-11-13T21:29:35.106Z,96342.56
2022-11-13T21:32:20.804Z,96340.78
2022-11-13T21:35:05.985Z,96343.53
2022-11-13T21:37:51.446Z,96347.91
2022-11-13T21:40:36.859Z,96332.03
2022-11-13T21:43:22.237Z,96327.75
2022-11-13T21:46:09.395Z,96332.25
2022-11-13T21:48:57.742Z,96330.44
2022-11-13T21:51:43.418Z,96326.91
2022-11-13T21:54:29.146Z,96323.53
2022-11-13T21:57:14.517Z,96316.38
2022-11-13T22:00:00.054Z,96325.34
2022-11-13T22:02:45.392Z,96331.53
2022-11-13T22:05:31.266Z,96319.19
2022-11-13T22:08:16.508Z,96326.19
2022-11-13T22:11:01.625Z,96330.69
2022-11-13T22:13:46.692Z,96322.44
2022-11-13T22:16:34.232Z,96327.91
2022-11-13T22:19:26.544Z,96328.00
2022-11-13T23:51:11.650Z,96294.91
2022-11-13T23:53:56.769Z,96302.41
2022-11-13T23:56:42.423Z,96314.09
2022-11-13T23:59:27.344Z,96305.50
